createdAt,value
2023-09-14T00:00:05.681Z,48.00
2023-09-14T00:02:07.372Z,48.45
2023-09-14T00:04:09.850Z,48.59
2023-09-14T00:06:11.735Z,48.15
2023-09-14T00:08:13.689Z,48.61
2023-09-14T00:10:15.798Z,48.78
2023-09-14T00:12:17.657Z,49.21
2023-09-14T00:14:19.451Z,48.63
2023-09-14T00:16:21.210Z,49.08
2023-09-14T00:18:23.158Z,49.28
2023-09-14T00:20:33.678Z,49.17
2023-09-14T00:22:35.369Z,48.46
2023-09-14T00:24:37.951Z,49.35
2023-09-14T00:26:39.682Z,49.10
2023-09-14T00:28:41.364Z,49.36
2023-09-14T00:30:43.257Z,49.33
2023-09-14T00:32:45.274Z,49.58
2023-09-14T00:34:47.124Z,50.00
2023-09-14T00:36:48.900Z,49.78
2023-09-14T00:38:50.756Z,49.71
2023-09-14T00:40:53.123Z,49.25
2023-09-14T00:42:55.031Z,48.58
2023-09-14T00:44:57.087Z,48.36
2023-09-14T00:46:58.848Z,48.23
2023-09-14T00:49:02.861Z,48.05
2023-09-14T00:51:04.850Z,48.11
2023-09-14T00:53:09.444Z,48.18
2023-09-14T00:55:11.923Z,48.07
2023-09-14T00:57:13.656Z,48.29
2023-09-14T00:59:16.579Z,48.33
2023-09-14T01:01:18.826Z,48.32
2023-09-14T01:03:20.881Z,48.56
2023-09-14T01:05:23.160Z,48.36
2023-09-14T01:07:24.820Z,48.33
2023-09-14T01:09:26.666Z,48.43
2023-09-14T01:11:29.026Z,48.55
2023-09-14T01:13:49.308Z,48.76
2023-09-14T01:15:54.785Z,48.69
2023-09-14T01:18:02.237Z,48.63
2023-09-14T01:20:41.679Z,48.70
2023-09-14T01:22:50.293Z,48.64
2023-09-14T01:25:48.356Z,48.81
2023-09-14T01:27:50.364Z,48.91
2023-09-14T01:29:52.031Z,49.34
2023-09-14T01:31:53.991Z,49.68
2023-09-14T01:33:55.980Z,49.59
2023-09-14T01:36:12.112Z,49.93
2023-09-14T01:38:14.642Z,50.26
2023-09-14T01:40:17.183Z,50.39
2023-09-14T01:42:18.884Z,50.80
2023-09-14T01:44:20.564Z,50.77
2023-09-14T01:46:24.157Z,50.89
2023-09-14T01:48:25.897Z,51.11
2023-09-14T01:50:28.260Z,51.01
2023-09-14T01:52:29.954Z,50.91
2023-09-14T01:54:31.881Z,50.64
2023-09-14T01:56:33.760Z,50.74
2023-09-14T01:58:35.386Z,50.72
2023-09-14T02:00:37.075Z,50.94
2023-09-14T02:02:38.833Z,51.15
2023-09-14T02:04:41.822Z,50.74
2023-09-14T02:06:43.988Z,50.88
2023-09-14T02:08:46.212Z,50.75
2023-09-14T02:10:48.288Z,50.72
2023-09-14T02:12:51.351Z,50.76
2023-09-14T02:14:53.092Z,50.52
2023-09-14T02:16:55.019Z,50.50
2023-09-14T02:18:56.766Z,50.61
2023-09-14T02:20:58.505Z,50.65
2023-09-14T02:23:00.182Z,50.63
2023-09-14T02:25:03.307Z,50.54
2023-09-14T02:27:05.530Z,50.40
2023-09-14T02:29:08.427Z,50.44
2023-09-14T02:31:10.221Z,50.62
2023-09-14T02:33:12.190Z,50.57
2023-09-14T02:35:13.993Z,50.50
2023-09-14T02:37:18.840Z,50.65
2023-09-14T02:39:20.510Z,51.04
2023-09-14T02:41:22.362Z,50.92
2023-09-14T02:43:24.051Z,50.88
2023-09-14T02:45:25.877Z,50.82
2023-09-14T02:47:27.871Z,50.99
2023-09-14T02:49:29.584Z,50.94
2023-09-14T02:51:31.305Z,51.16
2023-09-14T02:53:33.407Z,51.00
2023-09-14T02:55:36.119Z,51.10
2023-09-14T02:57:38.015Z,51.13
2023-09-14T02:59:39.925Z,50.91
2023-09-14T03:01:44.056Z,50.94
2023-09-14T03:03:45.818Z,51.04
2023-09-14T03:05:49.561Z,51.03
2023-09-14T03:07:51.451Z,51.43
2023-09-14T03:09:53.237Z,51.48
2023-09-14T03:11:57.940Z,51.88
2023-09-14T03:13:59.833Z,51.92
2023-09-14T03:16:01.671Z,51.73
2023-09-14T03:18:03.803Z,51.87
2023-09-14T03:20:09.094Z,52.57
2023-09-14T03:22:11.701Z,52.90
2023-09-14T03:24:13.543Z,53.33
2023-09-14T03:26:15.330Z,53.05
2023-09-14T03:28:18.508Z,52.94
2023-09-14T03:30:20.484Z,53.00
2023-09-14T03:32:22.450Z,52.93
2023-09-14T03:34:24.106Z,52.94
2023-09-14T03:36:27.637Z,52.97
2023-09-14T03:38:30.561Z,53.07
2023-09-14T03:40:32.424Z,52.96
2023-09-14T03:42:34.074Z,53.42
2023-09-14T03:44:35.679Z,53.61
2023-09-14T03:46:38.657Z,53.54
2023-09-14T03:48:40.400Z,53.49
2023-09-14T03:50:42.068Z,53.63
2023-09-14T03:52:43.923Z,54.24
2023-09-14T03:54:46.712Z,53.97
2023-09-14T03:56:48.530Z,53.93
2023-09-14T03:58:51.234Z,53.64
2023-09-14T04:00:53.082Z,53.49
2023-09-14T04:02:55.219Z,53.35
2023-09-14T04:04:56.959Z,53.28
2023-09-14T04:06:58.985Z,53.12
2023-09-14T04:09:00.780Z,53.37
2023-09-14T04:11:03.022Z,53.44
2023-09-14T04:13:34.047Z,53.62
2023-09-14T04:15:35.900Z,53.47
2023-09-14T04:17:37.978Z,53.52
2023-09-14T04:19:40.335Z,53.50
2023-09-14T04:21:43.208Z,54.06
2023-09-14T04:23:46.515Z,53.66
2023-09-14T04:25:52.354Z,53.48
2023-09-14T04:27:54.145Z,53.48
2023-09-14T04:29:55.920Z,53.66
2023-09-14T04:31:58.135Z,53.59
2023-09-14T04:34:00.278Z,54.14
2023-09-14T04:36:03.993Z,54.26
2023-09-14T04:38:08.347Z,54.17
2023-09-14T04:40:10.937Z,54.32
2023-09-14T04:42:12.708Z,54.20
2023-09-14T04:44:14.452Z,53.99
2023-09-14T04:46:16.118Z,54.11
2023-09-14T04:48:17.881Z,53.83
2023-09-14T04:50:19.614Z,53.45
2023-09-14T04:52:21.335Z,53.74
2023-09-14T04:54:22.975Z,53.43
2023-09-14T04:56:25.006Z,53.57
2023-09-14T04:58:27.280Z,53.92
2023-09-14T05:00:29.069Z,53.28
2023-09-14T05:02:31.018Z,52.74
2023-09-14T05:04:32.832Z,52.29
2023-09-14T05:06:34.786Z,51.96
2023-09-14T05:08:36.628Z,52.06
2023-09-14T05:10:38.672Z,52.10
2023-09-14T05:12:40.359Z,51.88
2023-09-14T05:14:42.412Z,51.44
2023-09-14T05:16:45.107Z,51.05
2023-09-14T05:18:47.127Z,50.97
2023-09-14T05:20:49.270Z,50.88
2023-09-14T05:22:51.004Z,50.67
2023-09-14T05:24:53.649Z,50.43
2023-09-14T05:26:55.719Z,50.28
2023-09-14T05:28:57.411Z,50.49
2023-09-14T05:30:59.242Z,50.50
2023-09-14T05:33:01.126Z,50.66
2023-09-14T05:35:03.805Z,50.87
2023-09-14T05:37:05.686Z,51.35
2023-09-14T05:39:08.739Z,50.75
2023-09-14T05:41:10.621Z,49.80
2023-09-14T05:43:12.361Z,49.95
2023-09-14T05:45:15.392Z,49.66
2023-09-14T05:47:17.327Z,49.31
2023-09-14T05:49:19.945Z,49.72
2023-09-14T05:51:22.219Z,50.28
2023-09-14T05:53:23.871Z,50.19
2023-09-14T05:55:25.567Z,50.15
2023-09-14T05:57:27.445Z,49.98
2023-09-14T05:59:32.652Z,50.11
2023-09-14T06:01:34.850Z,49.75
2023-09-14T06:03:39.242Z,49.75
2023-09-14T06:05:41.220Z,49.50
2023-09-14T06:07:42.946Z,49.99
2023-09-14T06:09:44.885Z,50.27
2023-09-14T06:11:46.633Z,50.17
2023-09-14T06:13:48.400Z,50.26
2023-09-14T06:15:50.426Z,49.58
2023-09-14T06:17:52.172Z,49.49
2023-09-14T06:19:53.807Z,49.57
2023-09-14T06:21:55.835Z,49.34
2023-09-14T06:23:57.488Z,49.01
2023-09-14T06:25:59.296Z,49.01
2023-09-14T06:28:01.118Z,48.67
2023-09-14T06:30:03.587Z,48.21
2023-09-14T06:32:05.496Z,48.74
2023-09-14T06:34:07.465Z,48.21
2023-09-14T06:36:09.336Z,48.11
2023-09-14T06:38:11.062Z,47.37
2023-09-14T06:40:12.912Z,47.47
2023-09-14T06:42:14.596Z,47.13
2023-09-14T06:44:20.099Z,46.77
2023-09-14T06:46:22.454Z,45.64
2023-09-14T06:48:24.193Z,45.28
2023-09-14T06:50:25.888Z,44.97
2023-09-14T06:52:27.615Z,44.38
2023-09-14T06:54:29.331Z,45.30
2023-09-14T06:56:30.987Z,45.28
2023-09-14T06:58:32.791Z,44.93
2023-09-14T07:00:37.108Z,44.37
2023-09-14T07:02:39.117Z,43.98
2023-09-14T07:04:42.035Z,43.96
2023-09-14T07:06:43.880Z,44.28
2023-09-14T07:08:45.674Z,44.42
2023-09-14T07:10:47.900Z,45.03
2023-09-14T07:12:50.220Z,45.09
2023-09-14T07:14:52.024Z,45.14
2023-09-14T07:16:53.924Z,45.03
2023-09-14T07:18:55.576Z,45.09
2023-09-14T07:20:58.651Z,44.75
2023-09-14T07:23:00.487Z,44.39
2023-09-14T07:25:03.461Z,44.55
2023-09-14T07:27:05.414Z,44.78
2023-09-14T07:29:08.848Z,44.44
2023-09-14T07:31:10.972Z,44.75
2023-09-14T07:33:12.729Z,44.71
2023-09-14T07:35:15.141Z,45.00
2023-09-14T07:37:17.302Z,44.74
2023-09-14T07:39:20.804Z,44.48
2023-09-14T07:41:23.978Z,44.51
2023-09-14T07:43:26.234Z,44.56
2023-09-14T07:45:32.741Z,44.24
2023-09-14T07:47:35.717Z,44.37
2023-09-14T07:49:37.398Z,44.70
2023-09-14T07:51:39.056Z,44.54
2023-09-14T07:53:40.914Z,44.33
2023-09-14T07:55:42.603Z,44.09
2023-09-14T07:57:44.342Z,43.76
2023-09-14T07:59:46.764Z,42.97
2023-09-14T08:01:48.497Z,43.26
2023-09-14T08:03:50.956Z,42.28
2023-09-14T08:05:53.719Z,41.60
2023-09-14T08:07:55.430Z,41.75
2023-09-14T08:09:57.089Z,41.65
2023-09-14T08:11:58.842Z,41.49
2023-09-14T08:14:00.900Z,41.46
2023-09-14T08:16:06.361Z,40.85
2023-09-14T08:18:08.295Z,40.64
2023-09-14T08:20:10.362Z,40.87
2023-09-14T08:22:12.077Z,40.85
2023-09-14T08:24:13.765Z,40.83
2023-09-14T08:26:15.367Z,40.37
2023-09-14T08:28:18.654Z,40.42
2023-09-14T08:30:20.602Z,40.87
2023-09-14T08:32:22.826Z,40.90
2023-09-14T08:34:24.589Z,40.60
2023-09-14T08:36:26.959Z,40.29
2023-09-14T08:38:28.697Z,40.27
2023-09-14T08:40:30.942Z,40.09
2023-09-14T08:42:32.738Z,39.92
2023-09-14T08:44:35.264Z,39.85
2023-09-14T08:46:37.176Z,39.35
2023-09-14T08:48:41.176Z,39.41
2023-09-14T08:50:44.532Z,39.32
2023-09-14T08:52:46.630Z,39.33
2023-09-14T08:54:49.576Z,39.29
2023-09-14T08:56:52.557Z,39.32
2023-09-14T08:58:55.735Z,39.59
2023-09-14T09:00:58.473Z,39.07
2023-09-14T09:03:00.891Z,39.13
2023-09-14T09:05:03.626Z,39.24
2023-09-14T09:07:05.783Z,38.95
2023-09-14T09:09:08.897Z,38.92
2023-09-14T09:11:10.730Z,38.88
2023-09-14T09:13:12.410Z,38.82
2023-09-14T09:15:17.347Z,38.53
2023-09-14T09:17:19.106Z,37.88
2023-09-14T09:19:20.852Z,37.77
2023-09-14T09:21:30.208Z,37.52
2023-09-14T09:23:33.624Z,37.41
2023-09-14T09:25:44.433Z,37.41
2023-09-14T09:27:46.266Z,37.14
2023-09-14T09:29:51.803Z,36.94
2023-09-14T09:31:53.670Z,37.08
2023-09-14T09:33:55.466Z,36.70
2023-09-14T09:35:59.615Z,36.31
2023-09-14T09:38:11.816Z,36.80
2023-09-14T09:40:15.355Z,36.42
2023-09-14T09:42:20.296Z,36.00
2023-09-14T09:44:24.393Z,36.49
2023-09-14T09:46:26.452Z,36.31
2023-09-14T09:48:33.134Z,35.43
2023-09-14T09:50:35.028Z,35.14
2023-09-14T09:52:36.920Z,35.58
2023-09-14T09:54:38.738Z,35.18
2023-09-14T09:56:40.346Z,35.58
2023-09-14T09:58:41.968Z,35.64
2023-09-14T10:00:44.391Z,35.85
2023-09-14T10:02:46.395Z,35.23
2023-09-14T10:04:54.270Z,34.99
2023-09-14T10:06:57.082Z,35.18
2023-09-14T10:08:58.834Z,34.96
2023-09-14T10:11:00.536Z,34.47
2023-09-14T10:13:03.182Z,33.83
2023-09-14T10:15:05.962Z,33.55
2023-09-14T10:17:09.212Z,33.06
2023-09-14T10:19:12.120Z,33.21
2023-09-14T10:21:14.195Z,33.25
2023-09-14T10:23:17.762Z,33.71
2023-09-14T10:25:20.771Z,33.75
2023-09-14T10:27:23.238Z,34.02
2023-09-14T10:29:27.477Z,32.28
2023-09-14T10:31:30.871Z,31.58
2023-09-14T10:33:33.033Z,31.63
2023-09-14T10:35:34.840Z,31.26
2023-09-14T10:37:37.177Z,31.04
2023-09-14T10:39:39.154Z,30.85
2023-09-14T10:41:40.860Z,30.98
2023-09-14T10:43:42.676Z,30.97
2023-09-14T10:45:45.203Z,30.76
2023-09-14T10:47:50.404Z,30.07
2023-09-14T10:49:52.848Z,29.75
2023-09-14T10:51:56.738Z,30.31
2023-09-14T10:53:58.492Z,30.02
2023-09-14T10:56:00.200Z,30.17
2023-09-14T10:58:02.230Z,29.34
2023-09-14T11:00:19.848Z,29.83
2023-09-14T11:03:07.560Z,29.99
2023-09-14T11:05:21.820Z,29.63
2023-09-14T11:07:57.823Z,29.21
2023-09-14T11:10:05.538Z,29.33
2023-09-14T11:12:22.703Z,28.55
2023-09-14T11:14:27.457Z,28.88
2023-09-14T11:16:42.495Z,28.99
2023-09-14T11:18:44.482Z,29.57
2023-09-14T11:20:48.314Z,29.61
2023-09-14T11:22:52.512Z,29.63
2023-09-14T11:24:55.969Z,29.57
2023-09-14T11:27:00.002Z,29.59
2023-09-14T11:29:03.663Z,29.65
2023-09-14T11:31:07.741Z,29.55
2023-09-14T11:33:11.869Z,29.24
2023-09-14T11:35:18.927Z,29.67
2023-09-14T11:37:24.681Z,29.85
2023-09-14T11:39:30.994Z,29.31
2023-09-14T11:41:59.291Z,29.45
2023-09-14T11:46:17.287Z,29.25
2023-09-14T11:50:25.944Z,29.41
2023-09-14T11:52:32.107Z,29.26
2023-09-14T11:54:34.185Z,28.74
2023-09-14T11:56:36.681Z,28.50
2023-09-14T11:58:40.385Z,28.69
2023-09-14T12:00:47.754Z,28.45
2023-09-14T12:02:50.051Z,28.59
2023-09-14T12:04:53.595Z,28.61
2023-09-14T12:06:56.674Z,28.24
2023-09-14T12:08:58.973Z,28.58
2023-09-14T12:11:00.730Z,28.92
2023-09-14T12:13:30.384Z,29.21
2023-09-14T12:15:33.131Z,29.17
2023-09-14T12:17:35.867Z,28.96
2023-09-14T12:19:45.526Z,29.09
2023-09-14T12:21:47.253Z,28.95
2023-09-14T12:23:53.080Z,29.27
2023-09-14T12:25:54.805Z,28.69
2023-09-14T12:27:56.663Z,28.71
2023-09-14T12:29:59.591Z,28.35
2023-09-14T12:32:01.308Z,28.26
2023-09-14T12:34:03.218Z,28.06
2023-09-14T12:36:05.438Z,28.13
2023-09-14T12:38:07.107Z,28.34
2023-09-14T12:40:11.448Z,28.68
2023-09-14T12:42:13.311Z,28.97
2023-09-14T12:44:15.042Z,29.05
2023-09-14T12:46:16.793Z,28.69
2023-09-14T12:48:19.539Z,28.72
2023-09-14T12:50:21.271Z,28.60
2023-09-14T12:52:25.116Z,28.61
2023-09-14T12:54:27.249Z,29.34
2023-09-14T12:56:32.136Z,29.62
2023-09-14T12:58:34.454Z,29.26
2023-09-14T13:00:36.361Z,29.63
2023-09-14T13:02:41.310Z,29.25
2023-09-14T13:04:43.190Z,29.24
2023-09-14T13:06:44.947Z,28.96
2023-09-14T13:08:48.545Z,28.87
2023-09-14T13:10:51.184Z,28.88
2023-09-14T13:13:05.839Z,29.14
2023-09-14T13:15:13.361Z,29.33
2023-09-14T13:17:21.843Z,28.95
2023-09-14T13:19:29.255Z,28.82
2023-09-14T13:21:36.386Z,28.62
2023-09-14T13:23:40.862Z,28.89
2023-09-14T13:25:42.621Z,28.87
2023-09-14T13:27:44.576Z,29.28
2023-09-14T13:29:46.333Z,28.99
2023-09-14T13:31:48.092Z,29.53
2023-09-14T13:33:50.151Z,29.23
2023-09-14T13:35:53.682Z,29.12
2023-09-14T13:37:58.599Z,28.85
2023-09-14T13:40:00.598Z,28.80
2023-09-14T13:42:02.501Z,29.01
2023-09-14T13:44:04.242Z,28.69
2023-09-14T13:46:06.026Z,28.73
2023-09-14T13:48:08.041Z,28.97
2023-09-14T13:50:12.748Z,28.82
2023-09-14T13:52:14.504Z,28.67
2023-09-14T13:54:16.262Z,29.00
2023-09-14T13:56:18.021Z,28.51
2023-09-14T13:58:19.672Z,28.65
2023-09-14T14:00:21.648Z,29.41
2023-09-14T14:02:23.570Z,29.09
2023-09-14T14:04:25.397Z,29.26
2023-09-14T14:06:27.356Z,29.26
2023-09-14T14:08:29.206Z,29.74
2023-09-14T14:10:31.182Z,29.47
2023-09-14T14:12:34.179Z,29.68
2023-09-14T14:14:37.988Z,29.80
2023-09-14T14:16:42.224Z,29.92
2023-09-14T14:18:43.927Z,29.93
2023-09-14T14:20:45.591Z,29.64
2023-09-14T14:22:47.180Z,30.05
2023-09-14T14:24:49.206Z,29.93
2023-09-14T14:26:52.248Z,30.45
2023-09-14T14:28:53.869Z,30.76
2023-09-14T14:30:55.793Z,30.76
2023-09-14T14:32:57.783Z,30.83
2023-09-14T14:34:59.443Z,31.32
2023-09-14T14:37:01.174Z,31.34
2023-09-14T14:39:04.770Z,31.55
2023-09-14T14:41:34.398Z,31.40
2023-09-14T14:43:28.875Z,31.44
2023-09-14T14:45:30.493Z,31.36
2023-09-14T14:47:32.551Z,31.53
2023-09-14T14:49:34.469Z,31.57
2023-09-14T14:51:36.464Z,31.23
2023-09-14T14:53:39.345Z,31.26
2023-09-14T14:55:41.072Z,31.22
2023-09-14T14:57:43.714Z,31.00
2023-09-14T14:59:45.563Z,30.68
2023-09-14T15:01:48.557Z,30.91
2023-09-14T15:03:50.294Z,30.77
2023-09-14T15:05:52.190Z,31.21
2023-09-14T15:07:54.017Z,30.51
2023-09-14T15:09:55.720Z,30.82
2023-09-14T15:11:57.966Z,31.10
2023-09-14T15:13:59.834Z,31.35
2023-09-14T15:16:02.165Z,31.41
2023-09-14T15:18:04.609Z,31.58
2023-09-14T15:20:06.818Z,31.45
2023-09-14T15:22:08.518Z,31.32
2023-09-14T15:24:10.812Z,31.24
2023-09-14T15:26:12.603Z,31.79
2023-09-14T15:28:14.269Z,31.63
2023-09-14T15:30:16.137Z,31.88
2023-09-14T15:32:17.782Z,31.62
2023-09-14T15:34:20.818Z,32.07
2023-09-14T15:36:23.047Z,31.63
2023-09-14T15:38:24.682Z,32.06
2023-09-14T15:40:26.494Z,31.95
2023-09-14T15:42:28.304Z,31.94
2023-09-14T15:44:29.942Z,32.77
2023-09-14T15:46:31.855Z,32.75
2023-09-14T15:48:33.660Z,32.38
2023-09-14T15:50:35.982Z,32.86
2023-09-14T15:52:40.152Z,32.72
2023-09-14T15:54:42.046Z,33.04
2023-09-14T15:56:44.015Z,32.88
2023-09-14T15:58:45.930Z,33.30
2023-09-14T16:00:47.933Z,33.38
2023-09-14T16:02:50.342Z,33.40
2023-09-14T16:04:52.149Z,34.01
2023-09-14T16:06:54.844Z,34.46
2023-09-14T16:08:56.520Z,34.64
2023-09-14T16:10:58.221Z,35.19
2023-09-14T16:13:00.021Z,35.51
2023-09-14T16:15:01.734Z,36.02
2023-09-14T16:17:03.954Z,36.55
2023-09-14T16:19:05.788Z,37.66
2023-09-14T16:21:07.410Z,39.12
2023-09-14T16:23:09.851Z,39.86
2023-09-14T16:25:12.677Z,41.28
2023-09-14T16:27:14.784Z,41.84
2023-09-14T16:29:16.575Z,44.02
2023-09-14T16:31:18.301Z,45.69
2023-09-14T16:33:21.437Z,47.21
2023-09-14T16:35:24.151Z,48.00
2023-09-14T16:37:25.779Z,49.13
2023-09-14T16:39:27.888Z,49.58
2023-09-14T16:41:29.537Z,49.89
2023-09-14T16:43:31.216Z,50.23
2023-09-14T16:45:33.023Z,50.50
2023-09-14T16:47:34.856Z,50.48
2023-09-14T16:49:36.537Z,50.68
2023-09-14T16:51:38.245Z,50.79
2023-09-14T16:53:39.889Z,50.60
2023-09-14T16:55:42.102Z,49.91
2023-09-14T16:57:43.894Z,49.11
2023-09-14T16:59:45.590Z,48.95
2023-09-14T17:01:47.899Z,48.51
2023-09-14T17:03:51.410Z,48.44
2023-09-14T17:05:55.201Z,47.94
2023-09-14T17:07:56.870Z,47.56
2023-09-14T17:09:58.646Z,47.22
2023-09-14T17:12:00.655Z,46.67
2023-09-14T17:14:04.389Z,46.84
2023-09-14T17:16:06.108Z,47.09
2023-09-14T17:18:07.925Z,46.38
2023-09-14T17:20:09.993Z,45.99
2023-09-14T17:22:13.798Z,45.91
2023-09-14T17:24:15.702Z,45.79
2023-09-14T17:26:17.440Z,46.29
2023-09-14T17:28:19.235Z,46.90
2023-09-14T17:30:20.879Z,46.90
2023-09-14T17:32:23.704Z,46.58
2023-09-14T17:34:26.809Z,45.73
2023-09-14T17:36:28.594Z,45.66
2023-09-14T17:38:30.397Z,45.18
2023-09-14T17:40:33.045Z,45.20
2023-09-14T17:42:34.796Z,44.96
2023-09-14T17:44:36.842Z,45.32
2023-09-14T17:46:38.736Z,46.08
2023-09-14T17:48:41.608Z,46.33
2023-09-14T17:50:44.311Z,46.59
2023-09-14T17:52:47.068Z,47.04
2023-09-14T17:54:49.954Z,48.07
2023-09-14T17:56:51.839Z,49.39
2023-09-14T17:58:53.698Z,49.71
2023-09-14T18:00:55.646Z,49.73
2023-09-14T18:02:57.523Z,50.17
2023-09-14T18:04:59.232Z,50.39
2023-09-14T18:07:01.284Z,50.21
2023-09-14T18:09:06.087Z,50.56
2023-09-14T18:11:07.954Z,50.21
2023-09-14T18:13:09.900Z,50.17
2023-09-14T18:15:14.197Z,50.52
2023-09-14T18:17:15.827Z,50.34
2023-09-14T18:19:19.001Z,50.36
2023-09-14T18:21:22.456Z,50.37
2023-09-14T18:23:28.817Z,50.72
2023-09-14T18:25:30.903Z,50.58
2023-09-14T18:27:33.338Z,50.10
2023-09-14T18:29:37.778Z,50.71
2023-09-14T18:31:41.052Z,50.16
2023-09-14T18:33:43.331Z,49.97
2023-09-14T18:35:45.080Z,50.29
2023-09-14T18:37:47.490Z,49.83
2023-09-14T18:39:49.321Z,50.10
2023-09-14T18:41:51.541Z,49.92
2023-09-14T18:43:53.254Z,49.72
2023-09-14T18:45:54.943Z,49.68
2023-09-14T18:47:57.753Z,49.96
2023-09-14T18:49:59.497Z,49.44
2023-09-14T18:52:01.172Z,49.96
2023-09-14T18:54:02.826Z,49.54
2023-09-14T18:56:04.909Z,49.98
2023-09-14T18:58:06.686Z,49.98
2023-09-14T19:00:12.494Z,50.04
2023-09-14T19:02:15.982Z,49.95
2023-09-14T19:04:20.820Z,50.03
2023-09-14T19:06:22.625Z,50.00
2023-09-14T19:08:25.010Z,49.66
2023-09-14T19:10:28.579Z,49.90
2023-09-14T19:12:30.929Z,49.78
2023-09-14T19:14:32.616Z,49.82
2023-09-14T19:16:34.369Z,50.19
2023-09-14T19:18:37.075Z,49.98
2023-09-14T19:20:38.722Z,50.08
2023-09-14T19:22:40.346Z,50.10
2023-09-14T19:24:42.429Z,50.29
2023-09-14T19:26:44.040Z,50.50
2023-09-14T19:28:45.940Z,50.15
2023-09-14T19:30:48.250Z,50.17
2023-09-14T19:32:50.481Z,50.20
2023-09-14T19:34:52.400Z,50.59
2023-09-14T19:36:54.568Z,51.01
2023-09-14T19:38:57.102Z,51.27
2023-09-14T19:40:58.828Z,52.00
2023-09-14T19:43:00.576Z,52.98
2023-09-14T19:45:02.515Z,53.30
2023-09-14T19:47:04.270Z,54.17
2023-09-14T19:49:06.015Z,54.39
2023-09-14T19:51:07.936Z,54.91
2023-09-14T19:53:09.694Z,55.34
2023-09-14T19:55:11.357Z,55.34
2023-09-14T19:57:13.146Z,55.80
2023-09-14T19:59:14.909Z,55.99
2023-09-14T20:01:16.968Z,55.82
2023-09-14T20:03:19.011Z,56.18
2023-09-14T20:05:24.787Z,56.80
2023-09-14T20:07:27.687Z,56.84
2023-09-14T20:09:29.371Z,57.34
2023-09-14T20:11:31.113Z,57.09
2023-09-14T20:13:37.403Z,56.84
2023-09-14T20:15:39.628Z,56.13
2023-09-14T20:17:43.261Z,55.72
2023-09-14T20:19:45.194Z,55.71
2023-09-14T20:21:46.974Z,55.55
2023-09-14T20:23:48.734Z,55.43
2023-09-14T20:25:50.381Z,55.31
2023-09-14T20:27:52.073Z,55.68
2023-09-14T20:29:54.723Z,55.30
2023-09-14T20:31:59.202Z,55.09
2023-09-14T20:34:01.228Z,54.89
2023-09-14T20:36:04.381Z,54.77
2023-09-14T20:38:06.177Z,55.00
2023-09-14T20:40:09.083Z,54.76
2023-09-14T20:42:10.793Z,54.71
2023-09-14T20:44:12.448Z,54.81
2023-09-14T20:46:14.716Z,54.58
2023-09-14T20:48:18.529Z,55.03
2023-09-14T20:50:20.400Z,55.55
2023-09-14T20:52:22.122Z,55.31
2023-09-14T20:54:24.425Z,55.01
2023-09-14T20:56:26.094Z,55.26
2023-09-14T20:58:29.866Z,54.94
2023-09-14T21:00:34.547Z,54.99
2023-09-14T21:02:36.369Z,55.00
2023-09-14T21:04:38.097Z,55.01
2023-09-14T21:06:40.051Z,54.86
2023-09-14T21:08:42.355Z,55.30
2023-09-14T21:10:44.600Z,55.68
2023-09-14T21:12:46.337Z,55.61
2023-09-14T21:14:48.428Z,55.27
2023-09-14T21:16:50.087Z,55.97
2023-09-14T21:18:51.822Z,55.66
2023-09-14T21:20:54.939Z,55.44
2023-09-14T21:22:56.547Z,55.07
2023-09-14T21:24:59.619Z,55.10
2023-09-14T21:27:01.536Z,54.74
2023-09-14T21:29:03.114Z,55.07
2023-09-14T21:31:04.859Z,55.02
2023-09-14T21:33:06.608Z,55.32
2023-09-14T21:35:09.861Z,55.66
2023-09-14T21:37:12.855Z,55.42
2023-09-14T21:39:14.700Z,55.49
2023-09-14T21:41:16.361Z,55.51
2023-09-14T21:43:17.971Z,55.35
2023-09-14T21:45:19.704Z,55.08
2023-09-14T21:47:21.587Z,54.65
2023-09-14T21:49:37.387Z,54.68
2023-09-14T21:51:39.553Z,54.95
2023-09-14T21:53:41.329Z,54.66
2023-09-14T21:55:43.928Z,55.12
2023-09-14T21:57:46.129Z,54.72
2023-09-14T21:59:47.986Z,54.20
2023-09-14T22:01:51.432Z,54.47
2023-09-14T22:03:53.254Z,53.88
2023-09-14T22:05:55.269Z,53.72
2023-09-14T22:07:57.264Z,53.93
2023-09-14T22:10:00.236Z,53.87
2023-09-14T22:12:03.002Z,53.92
2023-09-14T22:14:06.335Z,53.69
2023-09-14T22:16:08.507Z,54.13
2023-09-14T22:18:11.596Z,54.08
2023-09-14T22:20:19.382Z,54.19
2023-09-14T22:22:21.128Z,54.29
2023-09-14T22:24:23.236Z,54.46
2023-09-14T22:26:24.938Z,54.64
2023-09-14T22:28:27.189Z,54.51
2023-09-14T22:30:30.773Z,54.76
2023-09-14T22:32:33.409Z,54.66
2023-09-14T22:34:35.234Z,54.75
2023-09-14T22:36:37.276Z,54.96
2023-09-14T22:38:39.188Z,55.00
2023-09-14T22:40:40.964Z,54.80
2023-09-14T22:42:42.729Z,55.24
2023-09-14T22:44:44.509Z,55.19
2023-09-14T22:46:46.211Z,55.19
2023-09-14T22:48:48.897Z,55.04
2023-09-14T22:51:14.785Z,55.25
2023-09-14T22:53:17.741Z,55.57
2023-09-14T22:55:19.943Z,55.66
2023-09-14T22:57:21.567Z,56.01
2023-09-14T22:59:23.895Z,55.85
2023-09-14T23:01:27.555Z,55.92
2023-09-14T23:03:29.452Z,55.83
2023-09-14T23:05:31.271Z,55.91
2023-09-14T23:07:32.946Z,55.84
2023-09-14T23:09:37.818Z,56.01
2023-09-14T23:11:45.288Z,55.82
2023-09-14T23:13:50.262Z,55.95
2023-09-14T23:15:52.150Z,55.76
2023-09-14T23:17:54.100Z,55.47
2023-09-14T23:22:18.541Z,55.60
2023-09-14T23:24:20.578Z,55.66
2023-09-14T23:26:22.731Z,55.56
2023-09-14T23:28:25.426Z,55.79
2023-09-14T23:30:28.681Z,55.63
2023-09-14T23:32:32.278Z,55.75
2023-09-14T23:34:34.609Z,55.79
2023-09-14T23:36:39.603Z,55.71
2023-09-14T23:38:41.556Z,55.61
2023-09-14T23:40:43.402Z,55.64
2023-09-14T23:42:46.305Z,55.54
2023-09-14T23:44:48.068Z,55.43
2023-09-14T23:46:52.655Z,55.33
2023-09-14T23:48:55.892Z,55.41
2023-09-14T23:50:57.933Z,55.60
2023-09-14T23:52:59.696Z,55.53
2023-09-14T23:55:01.463Z,55.43
2023-09-14T23:57:04.152Z,55.28
2023-09-14T23:59:09.626Z,55.54
